sensor_id;sensor_type;location;lat;lon;timestamp;P1;durP1;ratioP1;P2;durP2;ratioP2
12112;SDS011;6120;52.250;8.478;2023-03-31T00:02:12;5.03;;;2.28;;
12112;SDS011;6120;52.250;8.478;2023-03-31T00:04:42;7.75;;;1.88;;
12112;SDS011;6120;52.250;8.478;2023-03-31T00:07:15;8.70;;;2.33;;
12112;SDS011;6120;52.250;8.478;2023-03-31T00:09:41;6.55;;;1.75;;
12112;SDS011;6120;52.250;8.478;2023-03-31T00:12:12;8.75;;;2.17;;
12112;SDS011;6120;52.250;8.478;2023-03-31T00:14:39;3.50;;;1.30;;
12112;SDS011;6120;52.250;8.478;2023-03-31T00:17:06;9.77;;;2.45;;
12112;SDS011;6120;52.250;8.478;2023-03-31T00:19:34;6.05;;;1.80;;
12112;SDS011;6120;52.250;8.478;2023-03-31T00:22:01;8.05;;;1.88;;
12112;SDS011;6120;52.250;8.478;2023-03-31T00:24:27;7.22;;;1.85;;
12112;SDS011;6120;52.250;8.478;2023-03-31T00:26:58;4.95;;;1.80;;
12112;SDS011;6120;52.250;8.478;2023-03-31T00:29:25;4.97;;;1.42;;
12112;SDS011;6120;52.250;8.478;2023-03-31T00:31:52;5.85;;;1.88;;
12112;SDS011;6120;52.250;8.478;2023-03-31T00:34:20;4.10;;;1.70;;
12112;SDS011;6120;52.250;8.478;2023-03-31T00:36:47;10.23;;;1.77;;
12112;SDS011;6120;52.250;8.478;2023-03-31T00:39:14;8.70;;;2.05;;
12112;SDS011;6120;52.250;8.478;2023-03-31T00:41:43;7.00;;;1.67;;
12112;SDS011;6120;52.250;8.478;2023-03-31T00:44:17;7.65;;;1.90;;
12112;SDS011;6120;52.250;8.478;2023-03-31T00:47:06;6.28;;;1.40;;
12112;SDS011;6120;52.250;8.478;2023-03-31T00:49:41;5.68;;;2.42;;
12112;SDS011;6120;52.250;8.478;2023-03-31T00:52:14;2.55;;;1.38;;
12112;SDS011;6120;52.250;8.478;2023-03-31T00:54:45;9.43;;;2.08;;
12112;SDS011;6120;52.250;8.478;2023-03-31T00:57:14;5.75;;;2.08;;
12112;SDS011;6120;52.250;8.478;2023-03-31T00:59:43;7.05;;;2.00;;
12112;SDS011;6120;52.250;8.478;2023-03-31T01:02:13;7.15;;;2.00;;
12112;SDS011;6120;52.250;8.478;2023-03-31T01:04:42;6.40;;;1.80;;
12112;SDS011;6120;52.250;8.478;2023-03-31T01:09:59;3.22;;;1.38;;
12112;SDS011;6120;52.250;8.478;2023-03-31T01:12:27;5.75;;;1.30;;
12112;SDS011;6120;52.250;8.478;2023-03-31T01:14:53;3.92;;;1.95;;
12112;SDS011;6120;52.250;8.478;2023-03-31T01:17:20;8.80;;;2.00;;
12112;SDS011;6120;52.250;8.478;2023-03-31T01:28:24;8.00;;;1.88;;
12112;SDS011;6120;52.250;8.478;2023-03-31T01:39:44;7.35;;;1.92;;
12112;SDS011;6120;52.250;8.478;2023-03-31T01:50:38;7.88;;;1.95;;
12112;SDS011;6120;52.250;8.478;2023-03-31T01:58:39;6.35;;;1.92;;
12112;SDS011;6120;52.250;8.478;2023-03-31T02:03:42;5.63;;;1.50;;
12112;SDS011;6120;52.250;8.478;2023-03-31T02:06:35;3.30;;;1.88;;
12112;SDS011;6120;52.250;8.478;2023-03-31T02:09:07;6.18;;;1.77;;
12112;SDS011;6120;52.250;8.478;2023-03-31T02:11:36;6.95;;;1.73;;
12112;SDS011;6120;52.250;8.478;2023-03-31T02:14:04;8.07;;;2.05;;
12112;SDS011;6120;52.250;8.478;2023-03-31T02:16:35;7.80;;;1.63;;
12112;SDS011;6120;52.250;8.478;2023-03-31T02:19:07;5.20;;;2.05;;
12112;SDS011;6120;52.250;8.478;2023-03-31T02:21:35;6.80;;;1.27;;
12112;SDS011;6120;52.250;8.478;2023-03-31T02:24:09;4.05;;;1.30;;
12112;SDS011;6120;52.250;8.478;2023-03-31T02:26:39;5.28;;;1.40;;
12112;SDS011;6120;52.250;8.478;2023-03-31T02:29:08;5.00;;;1.63;;
12112;SDS011;6120;52.250;8.478;2023-03-31T02:37:17;3.67;;;1.90;;
12112;SDS011;6120;52.250;8.478;2023-03-31T02:39:45;7.53;;;1.60;;
12112;SDS011;6120;52.250;8.478;2023-03-31T02:42:13;6.10;;;1.55;;
12112;SDS011;6120;52.250;8.478;2023-03-31T02:44:40;5.20;;;1.65;;
12112;SDS011;6120;52.250;8.478;2023-03-31T02:47:08;4.85;;;1.65;;
12112;SDS011;6120;52.250;8.478;2023-03-31T02:49:40;7.45;;;1.67;;
12112;SDS011;6120;52.250;8.478;2023-03-31T02:55:14;5.93;;;1.77;;
12112;SDS011;6120;52.250;8.478;2023-03-31T03:03:36;4.47;;;1.50;;
12112;SDS011;6120;52.250;8.478;2023-03-31T03:06:27;7.28;;;1.73;;
12112;SDS011;6120;52.250;8.478;2023-03-31T03:11:52;5.93;;;1.60;;
12112;SDS011;6120;52.250;8.478;2023-03-31T03:14:47;6.05;;;1.80;;
12112;SDS011;6120;52.250;8.478;2023-03-31T03:17:18;5.28;;;1.45;;
12112;SDS011;6120;52.250;8.478;2023-03-31T03:20:00;4.20;;;1.80;;
12112;SDS011;6120;52.250;8.478;2023-03-31T03:22:33;6.97;;;1.52;;
12112;SDS011;6120;52.250;8.478;2023-03-31T03:24:59;3.97;;;1.45;;
12112;SDS011;6120;52.250;8.478;2023-03-31T03:27:26;6.20;;;1.95;;
12112;SDS011;6120;52.250;8.478;2023-03-31T03:29:53;4.72;;;1.50;;
12112;SDS011;6120;52.250;8.478;2023-03-31T03:32:20;10.95;;;2.63;;
12112;SDS011;6120;52.250;8.478;2023-03-31T03:34:46;7.78;;;1.50;;
12112;SDS011;6120;52.250;8.478;2023-03-31T03:37:13;7.93;;;1.50;;
12112;SDS011;6120;52.250;8.478;2023-03-31T03:39:40;6.53;;;1.70;;
12112;SDS011;6120;52.250;8.478;2023-03-31T03:42:06;7.80;;;1.67;;
12112;SDS011;6120;52.250;8.478;2023-03-31T03:44:33;9.07;;;1.92;;
12112;SDS011;6120;52.250;8.478;2023-03-31T03:46:59;8.68;;;1.48;;
12112;SDS011;6120;52.250;8.478;2023-03-31T03:49:26;6.90;;;2.10;;
12112;SDS011;6120;52.250;8.478;2023-03-31T03:51:53;5.75;;;1.45;;
12112;SDS011;6120;52.250;8.478;2023-03-31T03:54:19;5.43;;;1.58;;
12112;SDS011;6120;52.250;8.478;2023-03-31T03:56:46;5.47;;;1.85;;
12112;SDS011;6120;52.250;8.478;2023-03-31T03:59:13;6.28;;;1.80;;
12112;SDS011;6120;52.250;8.478;2023-03-31T04:01:39;4.72;;;1.75;;
12112;SDS011;6120;52.250;8.478;2023-03-31T04:04:06;4.40;;;1.67;;
12112;SDS011;6120;52.250;8.478;2023-03-31T04:06:33;7.20;;;1.95;;
12112;SDS011;6120;52.250;8.478;2023-03-31T04:09:00;3.72;;;1.67;;
12112;SDS011;6120;52.250;8.478;2023-03-31T04:11:27;7.03;;;1.73;;
12112;SDS011;6120;52.250;8.478;2023-03-31T04:13:53;6.28;;;1.60;;
12112;SDS011;6120;52.250;8.478;2023-03-31T04:16:20;6.03;;;1.45;;
12112;SDS011;6120;52.250;8.478;2023-03-31T04:18:48;9.50;;;1.70;;
12112;SDS011;6120;52.250;8.478;2023-03-31T04:21:14;6.78;;;1.85;;
12112;SDS011;6120;52.250;8.478;2023-03-31T04:23:52;7.28;;;2.17;;
12112;SDS011;6120;52.250;8.478;2023-03-31T04:26:31;6.20;;;1.63;;
12112;SDS011;6120;52.250;8.478;2023-03-31T04:29:08;7.03;;;1.73;;
12112;SDS011;6120;52.250;8.478;2023-03-31T04:31:38;6.18;;;1.98;;
12112;SDS011;6120;52.250;8.478;2023-03-31T04:34:09;3.78;;;1.55;;
12112;SDS011;6120;52.250;8.478;2023-03-31T04:36:40;7.07;;;2.00;;
12112;SDS011;6120;52.250;8.478;2023-03-31T04:41:36;6.03;;;2.03;;
12112;SDS011;6120;52.250;8.478;2023-03-31T04:44:02;7.55;;;2.60;;
12112;SDS011;6120;52.250;8.478;2023-03-31T04:46:29;9.02;;;2.50;;
12112;SDS011;6120;52.250;8.478;2023-03-31T04:48:56;10.30;;;2.97;;
12112;SDS011;6120;52.250;8.478;2023-03-31T04:51:24;11.90;;;2.60;;
12112;SDS011;6120;52.250;8.478;2023-03-31T04:53:51;8.68;;;2.40;;
12112;SDS011;6120;52.250;8.478;2023-03-31T04:56:17;6.05;;;2.70;;
12112;SDS011;6120;52.250;8.478;2023-03-31T04:58:44;8.23;;;2.72;;
12112;SDS011;6120;52.250;8.478;2023-03-31T05:01:11;5.40;;;2.40;;
12112;SDS011;6120;52.250;8.478;2023-03-31T05:03:44;8.90;;;2.72;;
12112;SDS011;6120;52.250;8.478;2023-03-31T05:06:14;6.72;;;2.55;;
12112;SDS011;6120;52.250;8.478;2023-03-31T05:08:41;6.93;;;3.10;;
12112;SDS011;6120;52.250;8.478;2023-03-31T05:11:08;6.40;;;3.00;;
12112;SDS011;6120;52.250;8.478;2023-03-31T05:13:34;5.53;;;2.28;;
12112;SDS011;6120;52.250;8.478;2023-03-31T05:16:08;7.03;;;2.60;;
12112;SDS011;6120;52.250;8.478;2023-03-31T05:18:36;9.23;;;2.70;;
12112;SDS011;6120;52.250;8.478;2023-03-31T05:21:09;11.38;;;2.78;;
12112;SDS011;6120;52.250;8.478;2023-03-31T05:23:40;6.60;;;2.70;;
12112;SDS011;6120;52.250;8.478;2023-03-31T05:26:07;5.00;;;3.05;;
12112;SDS011;6120;52.250;8.478;2023-03-31T05:28:34;11.55;;;2.92;;
12112;SDS011;6120;52.250;8.478;2023-03-31T05:31:01;10.18;;;3.08;;
12112;SDS011;6120;52.250;8.478;2023-03-31T05:33:28;10.15;;;2.50;;
12112;SDS011;6120;52.250;8.478;2023-03-31T05:35:55;7.82;;;2.80;;
12112;SDS011;6120;52.250;8.478;2023-03-31T05:38:22;6.22;;;2.55;;
12112;SDS011;6120;52.250;8.478;2023-03-31T05:40:49;6.43;;;2.20;;
12112;SDS011;6120;52.250;8.478;2023-03-31T05:43:16;7.15;;;3.10;;
12112;SDS011;6120;52.250;8.478;2023-03-31T05:45:42;10.68;;;2.53;;
12112;SDS011;6120;52.250;8.478;2023-03-31T05:48:09;7.57;;;2.30;;
12112;SDS011;6120;52.250;8.478;2023-03-31T05:50:36;8.43;;;3.35;;
12112;SDS011;6120;52.250;8.478;2023-03-31T05:53:02;7.50;;;2.50;;
12112;SDS011;6120;52.250;8.478;2023-03-31T05:55:29;8.93;;;2.60;;
12112;SDS011;6120;52.250;8.478;2023-03-31T05:57:58;7.05;;;2.10;;
12112;SDS011;6120;52.250;8.478;2023-03-31T06:00:25;9.85;;;2.80;;
12112;SDS011;6120;52.250;8.478;2023-03-31T06:02:52;8.60;;;2.17;;
12112;SDS011;6120;52.250;8.478;2023-03-31T06:05:19;5.53;;;1.85;;
12112;SDS011;6120;52.250;8.478;2023-03-31T06:07:45;5.35;;;2.42;;
12112;SDS011;6120;52.250;8.478;2023-03-31T06:10:12;7.85;;;2.42;;
12112;SDS011;6120;52.250;8.478;2023-03-31T06:12:39;4.93;;;2.45;;
12112;SDS011;6120;52.250;8.478;2023-03-31T06:15:06;4.30;;;2.33;;
12112;SDS011;6120;52.250;8.478;2023-03-31T06:17:33;7.13;;;2.65;;
12112;SDS011;6120;52.250;8.478;2023-03-31T06:20:02;5.85;;;2.60;;
12112;SDS011;6120;52.250;8.478;2023-03-31T06:22:49;7.85;;;2.47;;
12112;SDS011;6120;52.250;8.478;2023-03-31T06:25:16;9.40;;;2.92;;
12112;SDS011;6120;52.250;8.478;2023-03-31T06:27:42;9.75;;;2.60;;
12112;SDS011;6120;52.250;8.478;2023-03-31T06:30:09;6.75;;;2.60;;
12112;SDS011;6120;52.250;8.478;2023-03-31T06:32:36;6.20;;;2.20;;
12112;SDS011;6120;52.250;8.478;2023-03-31T06:35:03;6.45;;;2.20;;
12112;SDS011;6120;52.250;8.478;2023-03-31T06:37:29;5.38;;;2.35;;
12112;SDS011;6120;52.250;8.478;2023-03-31T06:39:56;7.18;;;2.40;;
12112;SDS011;6120;52.250;8.478;2023-03-31T06:42:23;4.97;;;2.20;;
12112;SDS011;6120;52.250;8.478;2023-03-31T06:44:49;6.07;;;2.10;;
12112;SDS011;6120;52.250;8.478;2023-03-31T06:47:16;4.10;;;2.13;;
12112;SDS011;6120;52.250;8.478;2023-03-31T06:49:43;6.25;;;2.40;;
12112;SDS011;6120;52.250;8.478;2023-03-31T06:52:09;7.15;;;2.50;;
12112;SDS011;6120;52.250;8.478;2023-03-31T06:54:36;4.32;;;2.10;;
12112;SDS011;6120;52.250;8.478;2023-03-31T06:57:02;5.00;;;1.90;;
12112;SDS011;6120;52.250;8.478;2023-03-31T06:59:29;8.25;;;2.38;;
12112;SDS011;6120;52.250;8.478;2023-03-31T07:01:56;7.50;;;2.65;;
12112;SDS011;6120;52.250;8.478;2023-03-31T07:04:23;13.70;;;2.25;;
12112;SDS011;6120;52.250;8.478;2023-03-31T07:06:50;7.78;;;2.67;;
12112;SDS011;6120;52.250;8.478;2023-03-31T07:09:17;4.43;;;2.13;;
12112;SDS011;6120;52.250;8.478;2023-03-31T07:11:46;5.93;;;2.13;;
12112;SDS011;6120;52.250;8.478;2023-03-31T07:14:13;5.38;;;2.50;;
12112;SDS011;6120;52.250;8.478;2023-03-31T07:16:39;4.90;;;1.90;;
12112;SDS011;6120;52.250;8.478;2023-03-31T07:19:06;4.63;;;2.47;;
12112;SDS011;6120;52.250;8.478;2023-03-31T07:21:33;4.45;;;1.88;;
12112;SDS011;6120;52.250;8.478;2023-03-31T07:23:59;5.03;;;1.85;;
12112;SDS011;6120;52.250;8.478;2023-03-31T07:26:26;7.45;;;1.90;;
12112;SDS011;6120;52.250;8.478;2023-03-31T07:28:53;5.50;;;2.00;;
12112;SDS011;6120;52.250;8.478;2023-03-31T07:33:48;4.57;;;1.48;;
12112;SDS011;6120;52.250;8.478;2023-03-31T07:36:15;7.75;;;1.67;;
12112;SDS011;6120;52.250;8.478;2023-03-31T07:38:43;12.18;;;2.00;;
12112;SDS011;6120;52.250;8.478;2023-03-31T07:41:16;5.95;;;2.13;;
12112;SDS011;6120;52.250;8.478;2023-03-31T07:43:43;3.97;;;2.20;;
12112;SDS011;6120;52.250;8.478;2023-03-31T07:46:17;8.02;;;1.88;;
12112;SDS011;6120;52.250;8.478;2023-03-31T07:48:49;4.47;;;2.05;;
12112;SDS011;6120;52.250;8.478;2023-03-31T07:51:16;6.68;;;1.75;;
12112;SDS011;6120;52.250;8.478;2023-03-31T07:53:45;4.95;;;1.85;;
12112;SDS011;6120;52.250;8.478;2023-03-31T07:56:11;7.18;;;1.60;;
12112;SDS011;6120;52.250;8.478;2023-03-31T07:58:38;6.38;;;1.80;;
12112;SDS011;6120;52.250;8.478;2023-03-31T08:01:05;6.30;;;2.00;;
12112;SDS011;6120;52.250;8.478;2023-03-31T08:03:31;4.60;;;1.52;;
12112;SDS011;6120;52.250;8.478;2023-03-31T08:05:59;4.03;;;1.48;;
12112;SDS011;6120;52.250;8.478;2023-03-31T08:08:26;5.05;;;1.60;;
12112;SDS011;6120;52.250;8.478;2023-03-31T08:10:52;5.68;;;1.67;;
12112;SDS011;6120;52.250;8.478;2023-03-31T08:13:19;3.85;;;1.40;;
12112;SDS011;6120;52.250;8.478;2023-03-31T08:15:46;6.05;;;1.30;;
12112;SDS011;6120;52.250;8.478;2023-03-31T08:18:12;3.83;;;1.08;;
12112;SDS011;6120;52.250;8.478;2023-03-31T08:20:39;6.15;;;1.60;;
12112;SDS011;6120;52.250;8.478;2023-03-31T08:23:06;7.60;;;1.60;;
12112;SDS011;6120;52.250;8.478;2023-03-31T08:25:36;3.45;;;1.30;;
12112;SDS011;6120;52.250;8.478;2023-03-31T08:28:03;3.20;;;1.10;;
12112;SDS011;6120;52.250;8.478;2023-03-31T08:30:32;3.35;;;1.15;;
12112;SDS011;6120;52.250;8.478;2023-03-31T08:32:58;4.20;;;1.20;;
12112;SDS011;6120;52.250;8.478;2023-03-31T08:35:25;3.42;;;1.35;;
12112;SDS011;6120;52.250;8.478;2023-03-31T08:37:52;5.25;;;1.27;;
12112;SDS011;6120;52.250;8.478;2023-03-31T08:40:20;3.03;;;1.30;;
12112;SDS011;6120;52.250;8.478;2023-03-31T08:42:49;5.45;;;1.50;;
12112;SDS011;6120;52.250;8.478;2023-03-31T08:45:26;6.10;;;1.30;;
12112;SDS011;6120;52.250;8.478;2023-03-31T08:47:58;5.38;;;1.60;;
12112;SDS011;6120;52.250;8.478;2023-03-31T08:50:31;3.10;;;1.40;;
12112;SDS011;6120;52.250;8.478;2023-03-31T08:53:06;2.72;;;1.20;;
12112;SDS011;6120;52.250;8.478;2023-03-31T08:55:42;4.35;;;1.27;;
12112;SDS011;6120;52.250;8.478;2023-03-31T08:58:14;2.10;;;1.20;;
12112;SDS011;6120;52.250;8.478;2023-03-31T09:00:51;6.75;;;1.70;;
12112;SDS011;6120;52.250;8.478;2023-03-31T09:03:25;7.50;;;1.70;;
12112;SDS011;6120;52.250;8.478;2023-03-31T09:06:07;5.90;;;1.55;;
12112;SDS011;6120;52.250;8.478;2023-03-31T09:08:41;3.38;;;1.27;;
12112;SDS011;6120;52.250;8.478;2023-03-31T09:13:54;4.25;;;1.83;;
12112;SDS011;6120;52.250;8.478;2023-03-31T09:16:35;4.05;;;1.45;;
12112;SDS011;6120;52.250;8.478;2023-03-31T09:19:11;4.28;;;1.73;;
12112;SDS011;6120;52.250;8.478;2023-03-31T09:21:42;5.53;;;1.97;;
12112;SDS011;6120;52.250;8.478;2023-03-31T09:24:14;4.93;;;1.83;;
12112;SDS011;6120;52.250;8.478;2023-03-31T09:27:19;4.45;;;2.00;;
12112;SDS011;6120;52.250;8.478;2023-03-31T09:30:02;4.55;;;1.90;;
12112;SDS011;6120;52.250;8.478;2023-03-31T09:32:30;4.55;;;2.00;;
12112;SDS011;6120;52.250;8.478;2023-03-31T09:35:05;4.57;;;2.53;;
12112;SDS011;6120;52.250;8.478;2023-03-31T09:37:42;7.30;;;2.45;;
12112;SDS011;6120;52.250;8.478;2023-03-31T09:40:13;8.10;;;2.63;;
12112;SDS011;6120;52.250;8.478;2023-03-31T09:42:42;8.23;;;2.70;;
12112;SDS011;6120;52.250;8.478;2023-03-31T09:45:13;4.22;;;2.22;;
12112;SDS011;6120;52.250;8.478;2023-03-31T09:47:42;5.15;;;2.28;;
12112;SDS011;6120;52.250;8.478;2023-03-31T09:50:10;4.25;;;2.28;;
12112;SDS011;6120;52.250;8.478;2023-03-31T09:52:57;3.95;;;1.92;;
12112;SDS011;6120;52.250;8.478;2023-03-31T09:58:12;5.47;;;2.58;;
12112;SDS011;6120;52.250;8.478;2023-03-31T10:00:54;8.35;;;2.17;;
12112;SDS011;6120;52.250;8.478;2023-03-31T10:03:26;4.60;;;1.95;;
12112;SDS011;6120;52.250;8.478;2023-03-31T10:08:31;3.88;;;1.67;;
12112;SDS011;6120;52.250;8.478;2023-03-31T10:13:34;5.85;;;1.60;;
12112;SDS011;6120;52.250;8.478;2023-03-31T10:16:13;3.15;;;1.52;;
12112;SDS011;6120;52.250;8.478;2023-03-31T10:18:47;5.07;;;1.60;;
12112;SDS011;6120;52.250;8.478;2023-03-31T10:21:22;4.13;;;1.83;;
12112;SDS011;6120;52.250;8.478;2023-03-31T10:23:51;5.43;;;2.08;;
12112;SDS011;6120;52.250;8.478;2023-03-31T10:26:20;3.30;;;1.60;;
12112;SDS011;6120;52.250;8.478;2023-03-31T10:28:47;4.80;;;1.40;;
12112;SDS011;6120;52.250;8.478;2023-03-31T10:31:24;5.20;;;1.88;;
12112;SDS011;6120;52.250;8.478;2023-03-31T10:33:52;4.97;;;1.75;;
12112;SDS011;6120;52.250;8.478;2023-03-31T10:36:24;5.75;;;1.77;;
12112;SDS011;6120;52.250;8.478;2023-03-31T10:38:52;6.45;;;1.92;;
12112;SDS011;6120;52.250;8.478;2023-03-31T10:41:20;4.28;;;1.60;;
12112;SDS011;6120;52.250;8.478;2023-03-31T10:43:52;4.95;;;1.77;;
12112;SDS011;6120;52.250;8.478;2023-03-31T10:46:20;4.47;;;1.65;;
12112;SDS011;6120;52.250;8.478;2023-03-31T10:49:15;4.72;;;1.83;;
12112;SDS011;6120;52.250;8.478;2023-03-31T10:51:53;5.60;;;1.70;;
12112;SDS011;6120;52.250;8.478;2023-03-31T10:54:21;5.07;;;2.00;;
12112;SDS011;6120;52.250;8.478;2023-03-31T10:56:50;3.92;;;1.50;;
12112;SDS011;6120;52.250;8.478;2023-03-31T11:05:11;8.50;;;1.90;;
12112;SDS011;6120;52.250;8.478;2023-03-31T11:08:10;7.57;;;2.90;;
12112;SDS011;6120;52.250;8.478;2023-03-31T11:13:20;5.95;;;1.75;;
12112;SDS011;6120;52.250;8.478;2023-03-31T11:16:17;4.70;;;1.63;;
12112;SDS011;6120;52.250;8.478;2023-03-31T11:23:52;5.45;;;2.22;;
12112;SDS011;6120;52.250;8.478;2023-03-31T11:26:58;4.78;;;1.80;;
12112;SDS011;6120;52.250;8.478;2023-03-31T11:29:52;6.07;;;1.98;;
12112;SDS011;6120;52.250;8.478;2023-03-31T11:35:17;5.85;;;1.80;;
12112;SDS011;6120;52.250;8.478;2023-03-31T11:45:49;8.43;;;2.30;;
12112;SDS011;6120;52.250;8.478;2023-03-31T11:50:51;5.43;;;1.90;;
12112;SDS011;6120;52.250;8.478;2023-03-31T11:53:19;7.03;;;1.90;;
12112;SDS011;6120;52.250;8.478;2023-03-31T11:55:50;4.80;;;2.17;;
12112;SDS011;6120;52.250;8.478;2023-03-31T12:00:55;8.38;;;2.33;;
12112;SDS011;6120;52.250;8.478;2023-03-31T12:06:16;3.58;;;1.90;;
12112;SDS011;6120;52.250;8.478;2023-03-31T12:17:09;7.18;;;2.50;;
12112;SDS011;6120;52.250;8.478;2023-03-31T12:19:47;5.75;;;2.38;;
12112;SDS011;6120;52.250;8.478;2023-03-31T12:22:30;7.22;;;2.47;;
12112;SDS011;6120;52.250;8.478;2023-03-31T12:24:59;6.45;;;2.42;;
12112;SDS011;6120;52.250;8.478;2023-03-31T12:27:31;5.43;;;2.25;;
12112;SDS011;6120;52.250;8.478;2023-03-31T12:32:33;5.55;;;2.13;;
12112;SDS011;6120;52.250;8.478;2023-03-31T12:35:05;5.15;;;2.33;;
12112;SDS011;6120;52.250;8.478;2023-03-31T12:38:03;5.07;;;2.45;;
12112;SDS011;6120;52.250;8.478;2023-03-31T12:43:15;5.15;;;2.05;;
12112;SDS011;6120;52.250;8.478;2023-03-31T12:45:50;6.40;;;2.33;;
12112;SDS011;6120;52.250;8.478;2023-03-31T12:51:37;6.43;;;2.22;;
12112;SDS011;6120;52.250;8.478;2023-03-31T12:59:31;5.05;;;2.30;;
12112;SDS011;6120;52.250;8.478;2023-03-31T13:04:40;5.43;;;2.08;;
12112;SDS011;6120;52.250;8.478;2023-03-31T13:07:41;6.43;;;1.85;;
12112;SDS011;6120;52.250;8.478;2023-03-31T13:13:00;5.78;;;1.90;;
12112;SDS011;6120;52.250;8.478;2023-03-31T13:15:31;6.47;;;1.92;;
12112;SDS011;6120;52.250;8.478;2023-03-31T13:17:59;6.72;;;2.10;;
12112;SDS011;6120;52.250;8.478;2023-03-31T13:20:36;5.40;;;2.50;;
12112;SDS011;6120;52.250;8.478;2023-03-31T13:23:16;7.85;;;2.33;;
12112;SDS011;6120;52.250;8.478;2023-03-31T13:25:49;4.13;;;2.00;;
12112;SDS011;6120;52.250;8.478;2023-03-31T13:28:38;8.75;;;2.30;;
12112;SDS011;6120;52.250;8.478;2023-03-31T13:31:11;5.78;;;2.35;;
12112;SDS011;6120;52.250;8.478;2023-03-31T13:44:15;3.90;;;1.50;;
12112;SDS011;6120;52.250;8.478;2023-03-31T13:49:26;5.85;;;1.70;;
12112;SDS011;6120;52.250;8.478;2023-03-31T14:10:04;6.15;;;2.30;;
12112;SDS011;6120;52.250;8.478;2023-03-31T14:15:01;5.63;;;2.25;;
12112;SDS011;6120;52.250;8.478;2023-03-31T14:17:29;4.05;;;2.50;;
12112;SDS011;6120;52.250;8.478;2023-03-31T14:20:17;5.00;;;2.35;;
12112;SDS011;6120;52.250;8.478;2023-03-31T14:29:38;4.68;;;1.95;;
12112;SDS011;6120;52.250;8.478;2023-03-31T14:37:29;12.05;;;2.60;;
12112;SDS011;6120;52.250;8.478;2023-03-31T14:39:57;6.65;;;2.40;;
12112;SDS011;6120;52.250;8.478;2023-03-31T14:44:57;9.38;;;2.50;;
12112;SDS011;6120;52.250;8.478;2023-03-31T14:47:27;12.00;;;2.83;;
12112;SDS011;6120;52.250;8.478;2023-03-31T14:50:02;10.10;;;3.13;;
12112;SDS011;6120;52.250;8.478;2023-03-31T14:52:33;10.27;;;2.80;;
12112;SDS011;6120;52.250;8.478;2023-03-31T14:55:00;11.43;;;2.42;;
12112;SDS011;6120;52.250;8.478;2023-03-31T14:57:31;7.55;;;2.25;;
12112;SDS011;6120;52.250;8.478;2023-03-31T15:00:00;10.45;;;2.40;;
12112;SDS011;6120;52.250;8.478;2023-03-31T15:02:32;9.68;;;2.35;;
12112;SDS011;6120;52.250;8.478;2023-03-31T15:05:03;7.88;;;2.47;;
12112;SDS011;6120;52.250;8.478;2023-03-31T15:07:33;7.00;;;2.13;;
12112;SDS011;6120;52.250;8.478;2023-03-31T15:10:00;7.68;;;2.13;;
12112;SDS011;6120;52.250;8.478;2023-03-31T15:12:27;7.28;;;2.10;;
12112;SDS011;6120;52.250;8.478;2023-03-31T15:14:55;10.05;;;2.53;;
12112;SDS011;6120;52.250;8.478;2023-03-31T15:17:27;10.70;;;2.25;;
12112;SDS011;6120;52.250;8.478;2023-03-31T15:19:56;10.75;;;2.10;;
12112;SDS011;6120;52.250;8.478;2023-03-31T15:24:53;9.82;;;2.70;;
12112;SDS011;6120;52.250;8.478;2023-03-31T15:30:06;9.05;;;2.70;;
12112;SDS011;6120;52.250;8.478;2023-03-31T15:32:34;8.43;;;2.70;;
12112;SDS011;6120;52.250;8.478;2023-03-31T15:35:02;6.85;;;2.20;;
12112;SDS011;6120;52.250;8.478;2023-03-31T15:37:51;6.30;;;1.88;;
12112;SDS011;6120;52.250;8.478;2023-03-31T15:40:21;9.55;;;2.50;;
12112;SDS011;6120;52.250;8.478;2023-03-31T15:42:51;8.57;;;2.22;;
12112;SDS011;6120;52.250;8.478;2023-03-31T15:48:20;8.63;;;1.98;;
12112;SDS011;6120;52.250;8.478;2023-03-31T15:51:03;6.45;;;1.75;;
12112;SDS011;6120;52.250;8.478;2023-03-31T15:53:36;9.68;;;2.22;;
12112;SDS011;6120;52.250;8.478;2023-03-31T15:56:23;5.38;;;1.88;;
12112;SDS011;6120;52.250;8.478;2023-03-31T15:58:54;7.13;;;1.77;;
12112;SDS011;6120;52.250;8.478;2023-03-31T16:01:22;6.70;;;1.90;;
12112;SDS011;6120;52.250;8.478;2023-03-31T16:03:54;4.93;;;1.63;;
12112;SDS011;6120;52.250;8.478;2023-03-31T16:07:05;7.03;;;1.80;;
12112;SDS011;6120;52.250;8.478;2023-03-31T16:09:18;5.95;;;1.42;;
12112;SDS011;6120;52.250;8.478;2023-03-31T16:11:51;6.43;;;1.92;;
12112;SDS011;6120;52.250;8.478;2023-03-31T16:14:20;7.13;;;1.90;;
12112;SDS011;6120;52.250;8.478;2023-03-31T16:16:52;6.75;;;1.70;;
12112;SDS011;6120;52.250;8.478;2023-03-31T16:19:22;5.97;;;1.67;;
12112;SDS011;6120;52.250;8.478;2023-03-31T16:21:50;5.95;;;1.67;;
12112;SDS011;6120;52.250;8.478;2023-03-31T16:24:19;3.67;;;1.50;;
12112;SDS011;6120;52.250;8.478;2023-03-31T16:26:47;7.15;;;1.70;;
12112;SDS011;6120;52.250;8.478;2023-03-31T16:29:20;7.13;;;1.48;;
12112;SDS011;6120;52.250;8.478;2023-03-31T16:31:47;6.45;;;1.70;;
12112;SDS011;6120;52.250;8.478;2023-03-31T16:34:14;4.85;;;1.95;;
12112;SDS011;6120;52.250;8.478;2023-03-31T16:36:41;5.93;;;1.75;;
12112;SDS011;6120;52.250;8.478;2023-03-31T16:39:08;7.47;;;1.98;;
12112;SDS011;6120;52.250;8.478;2023-03-31T16:41:35;5.82;;;1.88;;
12112;SDS011;6120;52.250;8.478;2023-03-31T16:44:02;5.25;;;2.17;;
12112;SDS011;6120;52.250;8.478;2023-03-31T16:46:29;5.50;;;1.88;;
12112;SDS011;6120;52.250;8.478;2023-03-31T16:48:56;7.55;;;1.88;;
12112;SDS011;6120;52.250;8.478;2023-03-31T16:51:23;9.20;;;2.17;;
12112;SDS011;6120;52.250;8.478;2023-03-31T16:53:49;5.20;;;1.73;;
12112;SDS011;6120;52.250;8.478;2023-03-31T16:56:16;7.10;;;1.60;;
12112;SDS011;6120;52.250;8.478;2023-03-31T16:58:43;6.30;;;1.40;;
12112;SDS011;6120;52.250;8.478;2023-03-31T17:01:10;8.23;;;1.58;;
12112;SDS011;6120;52.250;8.478;2023-03-31T17:03:37;6.35;;;1.70;;
12112;SDS011;6120;52.250;8.478;2023-03-31T17:06:08;5.95;;;1.50;;
12112;SDS011;6120;52.250;8.478;2023-03-31T17:08:37;8.55;;;2.08;;
12112;SDS011;6120;52.250;8.478;2023-03-31T17:11:08;8.68;;;2.13;;
12112;SDS011;6120;52.250;8.478;2023-03-31T17:13:38;6.35;;;1.92;;
12112;SDS011;6120;52.250;8.478;2023-03-31T17:16:05;12.88;;;2.15;;
12112;SDS011;6120;52.250;8.478;2023-03-31T17:18:47;7.97;;;2.13;;
12112;SDS011;6120;52.250;8.478;2023-03-31T17:21:14;9.80;;;3.03;;
12112;SDS011;6120;52.250;8.478;2023-03-31T17:23:44;10.45;;;3.03;;
12112;SDS011;6120;52.250;8.478;2023-03-31T17:26:12;7.10;;;1.95;;
12112;SDS011;6120;52.250;8.478;2023-03-31T17:28:39;10.75;;;2.13;;
12112;SDS011;6120;52.250;8.478;2023-03-31T17:31:13;9.88;;;2.45;;
12112;SDS011;6120;52.250;8.478;2023-03-31T17:33:41;6.82;;;2.40;;
12112;SDS011;6120;52.250;8.478;2023-03-31T17:36:09;5.63;;;2.25;;
12112;SDS011;6120;52.250;8.478;2023-03-31T17:38:36;13.25;;;2.42;;
12112;SDS011;6120;52.250;8.478;2023-03-31T17:41:05;10.93;;;2.80;;
12112;SDS011;6120;52.250;8.478;2023-03-31T17:46:01;8.88;;;2.65;;
12112;SDS011;6120;52.250;8.478;2023-03-31T17:48:33;4.85;;;2.08;;
12112;SDS011;6120;52.250;8.478;2023-03-31T17:51:07;8.43;;;2.20;;
12112;SDS011;6120;52.250;8.478;2023-03-31T17:53:35;9.43;;;2.50;;
12112;SDS011;6120;52.250;8.478;2023-03-31T17:56:02;5.57;;;2.63;;
12112;SDS011;6120;52.250;8.478;2023-03-31T17:58:29;6.22;;;2.40;;
12112;SDS011;6120;52.250;8.478;2023-03-31T18:00:57;7.97;;;3.20;;
12112;SDS011;6120;52.250;8.478;2023-03-31T18:03:27;7.88;;;2.30;;
12112;SDS011;6120;52.250;8.478;2023-03-31T18:05:54;5.53;;;1.90;;
12112;SDS011;6120;52.250;8.478;2023-03-31T18:08:21;10.32;;;3.00;;
12112;SDS011;6120;52.250;8.478;2023-03-31T18:10:48;6.45;;;1.85;;
12112;SDS011;6120;52.250;8.478;2023-03-31T18:13:15;6.25;;;2.17;;
12112;SDS011;6120;52.250;8.478;2023-03-31T18:15:46;8.73;;;2.25;;
12112;SDS011;6120;52.250;8.478;2023-03-31T18:18:16;6.30;;;2.20;;
12112;SDS011;6120;52.250;8.478;2023-03-31T18:20:43;5.32;;;1.48;;
12112;SDS011;6120;52.250;8.478;2023-03-31T18:23:10;7.45;;;1.75;;
12112;SDS011;6120;52.250;8.478;2023-03-31T18:25:37;7.78;;;2.40;;
12112;SDS011;6120;52.250;8.478;2023-03-31T18:28:04;5.47;;;1.48;;
12112;SDS011;6120;52.250;8.478;2023-03-31T18:30:30;3.20;;;1.17;;